Baden Heliport LOAF

Flugplatz Daten

Name: Baden Heliport

Ident: LOAF

Lat: 48,00027847

Long: 16,25222206

Platzhöhe: 733 ft

IataCode:

City: Baden

Metar

2021/01/19 20:00
NZCH 192000Z AUTO 34010KT 320V020 9999 NCD 14/02 Q0986 NOSIG SUGARLOAF 31028KT

Taf

Gewünschte Webcam nicht vorhanden? Dann fügen Sie eine hinzu. Sie wird dann so schnell wie möglich freigeschaltet
Url: Title: